createdAt,value
2023-03-04T00:00:36.791Z,81.63
2023-03-04T00:03:04.716Z,81.71
2023-03-04T00:05:32.599Z,81.97
2023-03-04T00:08:00.489Z,82.26
2023-03-04T00:10:28.318Z,82.18
2023-03-04T00:12:56.266Z,82.42
2023-03-04T00:15:24.729Z,82.50
2023-03-04T00:17:53.944Z,82.20
2023-03-04T00:20:21.760Z,82.92
2023-03-04T00:22:49.616Z,82.88
2023-03-04T00:25:17.691Z,82.88
2023-03-04T00:27:45.647Z,82.21
2023-03-04T00:30:14.065Z,82.91
2023-03-04T00:32:43.777Z,82.71
2023-03-04T00:35:13.028Z,82.52
2023-03-04T00:37:40.818Z,82.71
2023-03-04T00:40:10.028Z,82.65
2023-03-04T00:42:38.026Z,82.77
2023-03-04T00:45:07.811Z,82.30
2023-03-04T00:47:35.666Z,82.02
2023-03-04T00:50:03.903Z,82.05
2023-03-04T00:52:33.368Z,81.82
2023-03-04T00:55:01.211Z,82.34
2023-03-04T00:57:29.101Z,82.69
2023-03-04T00:59:57.164Z,82.05
2023-03-04T01:02:25.451Z,82.00
2023-03-04T01:04:54.465Z,82.19
2023-03-04T01:07:23.243Z,82.27
2023-03-04T01:09:52.482Z,81.72
2023-03-04T01:12:20.440Z,82.04
2023-03-04T01:14:48.361Z,82.04
2023-03-04T01:17:16.193Z,82.76
2023-03-04T01:19:44.108Z,82.65
2023-03-04T01:22:13.649Z,82.66
2023-03-04T01:24:42.354Z,82.63
2023-03-04T01:27:12.642Z,82.50
2023-03-04T01:29:40.577Z,82.66
2023-03-04T01:32:08.951Z,82.73
2023-03-04T01:34:36.785Z,82.24
2023-03-04T01:37:06.390Z,82.78
2023-03-04T01:39:35.540Z,82.66
2023-03-04T01:42:04.600Z,82.49
2023-03-04T01:44:34.684Z,82.69
2023-03-04T01:47:02.622Z,82.50
2023-03-04T01:49:31.188Z,82.08
2023-03-04T01:51:59.132Z,82.09
2023-03-04T01:54:28.015Z,82.18
2023-03-04T01:56:58.809Z,82.22
2023-03-04T01:59:31.515Z,82.80
2023-03-04T02:02:02.006Z,82.07
2023-03-04T02:04:34.339Z,82.14
2023-03-04T02:07:03.619Z,82.61
2023-03-04T02:09:33.000Z,82.78
2023-03-04T02:12:01.252Z,82.74
2023-03-04T02:14:29.101Z,82.88
2023-03-04T02:16:57.210Z,82.56
2023-03-04T02:19:42.823Z,82.43
2023-03-04T02:22:10.879Z,82.84
2023-03-04T02:24:46.181Z,82.85
2023-03-04T02:27:15.571Z,83.02
2023-03-04T02:29:43.783Z,82.81
2023-03-04T02:32:15.691Z,82.62
2023-03-04T02:34:48.377Z,83.12
2023-03-04T02:37:18.294Z,83.25
2023-03-04T02:39:47.952Z,83.02
2023-03-04T02:42:18.425Z,82.55
2023-03-04T02:44:49.251Z,82.76
2023-03-04T02:47:20.170Z,82.85
2023-03-04T02:49:49.501Z,82.75
2023-03-04T02:52:21.143Z,83.29
2023-03-04T02:54:49.703Z,82.80
2023-03-04T02:57:20.285Z,82.40
2023-03-04T02:59:53.170Z,83.06
2023-03-04T03:02:24.196Z,82.71
2023-03-04T03:04:52.499Z,82.63
2023-03-04T03:07:24.203Z,82.74
2023-03-04T03:09:53.384Z,83.21
2023-03-04T03:12:22.590Z,82.83
2023-03-04T03:14:50.698Z,83.47
2023-03-04T03:17:21.250Z,83.10
2023-03-04T03:19:49.045Z,82.81
2023-03-04T03:22:17.518Z,83.03
2023-03-04T03:24:45.686Z,83.26
2023-03-04T03:27:13.530Z,83.02
2023-03-04T03:29:42.932Z,83.29
2023-03-04T03:32:10.851Z,82.78
2023-03-04T03:34:38.876Z,82.30
2023-03-04T03:37:07.914Z,83.20
2023-03-04T03:39:36.396Z,82.48
2023-03-04T03:42:04.382Z,83.23
2023-03-04T03:44:32.329Z,82.91
2023-03-04T03:47:01.550Z,82.81
2023-03-04T03:49:30.363Z,83.11
2023-03-04T03:51:58.285Z,82.48
2023-03-04T03:54:27.551Z,83.12
2023-03-04T03:56:55.631Z,82.99
2023-03-04T03:59:24.090Z,82.93
2023-03-04T04:01:53.718Z,83.17
2023-03-04T04:04:24.886Z,83.21
2023-03-04T04:06:53.896Z,84.23
2023-03-04T04:09:22.592Z,83.93
2023-03-04T04:11:51.810Z,83.62
2023-03-04T04:14:19.681Z,82.70
2023-03-04T04:16:48.371Z,83.35
2023-03-04T04:19:21.202Z,83.18
2023-03-04T04:21:50.421Z,82.78
2023-03-04T04:24:18.575Z,83.46
2023-03-04T04:26:46.618Z,83.39
2023-03-04T04:29:15.652Z,83.50
2023-03-04T04:31:43.578Z,83.33
2023-03-04T04:34:11.460Z,82.77
2023-03-04T04:36:39.887Z,82.87
2023-03-04T04:39:09.618Z,83.19
2023-03-04T04:41:40.035Z,83.77
2023-03-04T04:44:08.351Z,82.89
2023-03-04T04:46:40.142Z,82.67
2023-03-04T04:49:09.330Z,82.71
2023-03-04T04:51:39.312Z,82.61
2023-03-04T04:54:08.947Z,83.15
2023-03-04T04:56:36.815Z,83.18
2023-03-04T04:59:07.752Z,83.34
2023-03-04T05:01:35.739Z,83.66
2023-03-04T05:04:04.853Z,83.49
2023-03-04T05:06:33.412Z,83.58
2023-03-04T05:09:02.243Z,83.58
2023-03-04T05:11:31.705Z,83.62
2023-03-04T05:13:59.496Z,84.16
2023-03-04T05:16:27.850Z,83.52
2023-03-04T05:18:55.781Z,83.24
2023-03-04T05:21:25.307Z,83.03
2023-03-04T05:23:53.135Z,82.86
2023-03-04T05:26:23.924Z,83.02
2023-03-04T05:28:53.267Z,82.55
2023-03-04T05:31:21.914Z,82.71
2023-03-04T05:33:50.875Z,83.58
2023-03-04T05:36:20.747Z,83.54
2023-03-04T05:38:49.392Z,82.81
2023-03-04T05:41:20.690Z,83.67
2023-03-04T05:43:51.036Z,83.62
2023-03-04T05:46:25.289Z,82.36
2023-03-04T05:48:55.176Z,83.10
2023-03-04T05:51:23.855Z,82.88
2023-03-04T05:53:52.311Z,83.23
2023-03-04T05:56:23.017Z,82.51
2023-03-04T05:58:51.767Z,83.22
2023-03-04T06:01:21.007Z,83.89
2023-03-04T06:03:49.366Z,83.71
2023-03-04T06:06:17.368Z,82.75
2023-03-04T06:08:45.297Z,83.33
2023-03-04T06:11:13.192Z,82.94
2023-03-04T06:13:41.193Z,82.85
2023-03-04T06:16:10.386Z,82.63
2023-03-04T06:18:40.595Z,82.72
2023-03-04T06:21:11.654Z,82.18
2023-03-04T06:23:42.357Z,83.35
2023-03-04T06:26:15.642Z,83.09
2023-03-04T06:28:46.394Z,82.98
2023-03-04T06:31:16.315Z,83.50
2023-03-04T06:33:48.612Z,83.83
2023-03-04T06:36:17.059Z,84.34
2023-03-04T06:38:45.710Z,84.10
2023-03-04T06:41:14.934Z,84.80
2023-03-04T06:43:44.569Z,84.76
2023-03-04T06:46:13.346Z,85.68
2023-03-04T06:48:42.038Z,85.42
2023-03-04T06:51:12.779Z,85.42
2023-03-04T06:53:43.348Z,85.67
2023-03-04T06:56:15.968Z,85.25
2023-03-04T06:58:44.978Z,85.32
2023-03-04T07:01:16.196Z,85.65
2023-03-04T07:03:44.319Z,84.80
2023-03-04T07:06:15.324Z,84.86
2023-03-04T07:08:44.470Z,85.19
2023-03-04T07:11:14.099Z,86.68
2023-03-04T07:13:42.738Z,89.15
2023-03-04T07:16:14.759Z,90.08
2023-03-04T07:18:42.972Z,89.83
2023-03-04T07:21:11.507Z,90.58
2023-03-04T07:23:42.072Z,90.92
2023-03-04T07:26:11.353Z,91.59
2023-03-04T07:28:40.468Z,91.99
2023-03-04T07:31:17.176Z,92.53
2023-03-04T07:33:46.097Z,92.96
2023-03-04T07:36:15.924Z,92.09
2023-03-04T07:38:48.169Z,92.31
2023-03-04T07:41:16.852Z,92.22
2023-03-04T07:43:45.585Z,92.52
2023-03-04T07:46:13.890Z,92.12
2023-03-04T07:48:42.608Z,91.89
2023-03-04T07:51:14.953Z,92.04
2023-03-04T07:53:49.680Z,91.71
2023-03-04T07:56:19.992Z,91.23
2023-03-04T07:58:48.723Z,91.78
2023-03-04T08:01:20.799Z,91.96
2023-03-04T08:03:49.588Z,91.70
2023-03-04T08:06:19.788Z,92.02
2023-03-04T08:08:52.334Z,92.00
2023-03-04T08:11:22.504Z,92.16
2023-03-04T08:13:54.193Z,92.12
2023-03-04T08:16:24.804Z,91.87
2023-03-04T08:18:56.677Z,92.05
2023-03-04T08:21:26.535Z,91.62
2023-03-04T08:23:58.461Z,91.87
2023-03-04T08:26:29.349Z,91.31
2023-03-04T08:28:58.479Z,91.56
2023-03-04T08:31:27.394Z,91.55
2023-03-04T08:33:57.212Z,91.89
2023-03-04T08:36:25.915Z,91.08
2023-03-04T08:38:55.407Z,90.72
2023-03-04T08:41:25.698Z,90.94
2023-03-04T08:43:54.154Z,90.58
2023-03-04T08:46:23.268Z,89.88
2023-03-04T08:48:51.605Z,89.57
2023-03-04T08:51:19.798Z,89.96
2023-03-04T08:53:48.161Z,89.38
2023-03-04T08:56:18.118Z,88.95
2023-03-04T08:58:46.903Z,88.78
2023-03-04T09:01:17.349Z,88.71
2023-03-04T09:03:46.330Z,88.03
2023-03-04T09:06:16.581Z,88.19
2023-03-04T09:08:46.087Z,88.20
2023-03-04T09:11:15.393Z,87.95
2023-03-04T09:13:45.690Z,88.09
2023-03-04T09:16:15.941Z,88.08
2023-03-04T09:18:47.747Z,87.74
2023-03-04T09:21:16.772Z,87.52
2023-03-04T09:23:45.099Z,87.68
2023-03-04T09:26:20.364Z,87.59
2023-03-04T09:28:53.074Z,87.29
2023-03-04T09:31:21.422Z,87.36
2023-03-04T09:33:49.531Z,86.58
2023-03-04T09:36:18.132Z,85.39
2023-03-04T09:38:48.289Z,85.23
2023-03-04T09:41:19.703Z,85.10
2023-03-04T09:43:49.648Z,84.45
2023-03-04T09:46:24.041Z,84.38
2023-03-04T09:48:55.810Z,84.30
2023-03-04T09:51:30.442Z,83.87
2023-03-04T09:54:07.523Z,83.59
2023-03-04T09:56:37.709Z,83.16
2023-03-04T09:59:16.759Z,83.01
2023-03-04T10:01:51.901Z,82.03
2023-03-04T10:04:30.016Z,81.67
2023-03-04T10:06:58.237Z,82.02
2023-03-04T10:09:29.537Z,81.28
2023-03-04T10:12:04.101Z,80.71
2023-03-04T10:14:36.535Z,80.69
2023-03-04T10:17:14.450Z,80.12
2023-03-04T10:19:54.546Z,80.50
2023-03-04T10:22:29.452Z,79.53
2023-03-04T10:25:03.423Z,79.43
2023-03-04T10:27:32.798Z,78.84
2023-03-04T10:30:01.841Z,79.19
2023-03-04T10:32:31.801Z,78.54
2023-03-04T10:34:59.955Z,77.70
2023-03-04T10:37:46.202Z,76.78
2023-03-04T10:40:23.805Z,76.92
2023-03-04T10:42:53.251Z,76.77
2023-03-04T10:45:24.408Z,76.61
2023-03-04T10:47:58.855Z,75.59
2023-03-04T10:50:28.975Z,75.69
2023-03-04T10:52:57.864Z,75.41
2023-03-04T10:55:29.217Z,75.05
2023-03-04T10:58:03.519Z,75.12
2023-03-04T11:00:34.478Z,75.34
2023-03-04T11:03:30.034Z,74.65
2023-03-04T11:06:23.361Z,74.52
2023-03-04T11:08:55.840Z,73.38
2023-03-04T11:11:34.537Z,74.01
2023-03-04T11:14:09.673Z,73.99
2023-03-04T11:16:38.928Z,74.15
2023-03-04T11:19:17.456Z,74.22
2023-03-04T11:21:45.515Z,74.13
2023-03-04T11:24:28.269Z,73.71
2023-03-04T11:27:02.869Z,74.46
2023-03-04T11:29:33.995Z,74.51
2023-03-04T11:32:08.217Z,74.68
2023-03-04T11:34:45.028Z,73.44
2023-03-04T11:37:20.401Z,73.47
2023-03-04T11:39:53.486Z,74.04
2023-03-04T11:42:38.166Z,73.78
2023-03-04T11:45:27.844Z,74.25
2023-03-04T11:48:07.042Z,74.18
2023-03-04T11:50:47.418Z,74.06
2023-03-04T11:53:45.675Z,73.93
2023-03-04T11:56:35.951Z,72.64
2023-03-04T11:59:25.971Z,71.18
2023-03-04T12:02:09.177Z,71.84
2023-03-04T12:04:47.986Z,71.46
2023-03-04T12:07:26.727Z,71.98
2023-03-04T12:10:02.331Z,71.40
2023-03-04T12:12:48.538Z,71.53
2023-03-04T12:15:22.030Z,72.46
2023-03-04T12:18:02.387Z,71.95
2023-03-04T12:20:41.893Z,70.94
2023-03-04T12:23:24.861Z,71.10
2023-03-04T12:26:00.148Z,70.95
2023-03-04T12:28:39.401Z,70.70
2023-03-04T12:31:39.146Z,70.13
2023-03-04T12:34:33.213Z,69.93
2023-03-04T12:37:14.424Z,69.45
2023-03-04T12:39:52.170Z,70.28
2023-03-04T12:42:28.012Z,69.74
2023-03-04T12:45:04.657Z,69.31
2023-03-04T12:47:41.940Z,68.97
2023-03-04T12:50:30.468Z,68.54
2023-03-04T12:53:06.756Z,68.72
2023-03-04T12:55:39.584Z,68.01
2023-03-04T12:58:13.295Z,68.49
2023-03-04T13:00:51.008Z,69.21
2023-03-04T13:03:26.120Z,69.17
2023-03-04T13:06:06.695Z,69.30
2023-03-04T13:08:43.632Z,69.63
2023-03-04T13:11:47.075Z,68.96
2023-03-04T13:14:30.910Z,69.52
2023-03-04T13:17:01.916Z,69.13
2023-03-04T13:19:52.532Z,70.26
2023-03-04T13:22:47.467Z,69.32
2023-03-04T13:25:38.822Z,68.62
2023-03-04T13:28:27.550Z,69.69
2023-03-04T13:31:26.610Z,69.09
2023-03-04T13:34:02.937Z,69.50
2023-03-04T13:36:54.885Z,69.80
2023-03-04T13:39:32.720Z,69.64
2023-03-04T13:42:01.389Z,69.58
2023-03-04T13:45:05.885Z,70.75
2023-03-04T13:47:50.095Z,70.53
2023-03-04T13:50:40.215Z,70.56
2023-03-04T13:53:43.156Z,69.74
2023-03-04T13:56:31.355Z,69.79
2023-03-04T13:59:21.883Z,70.30
2023-03-04T14:01:56.799Z,68.80
2023-03-04T14:04:30.913Z,70.12
2023-03-04T14:07:00.799Z,70.44
2023-03-04T14:09:30.489Z,69.34
2023-03-04T14:12:02.582Z,69.59
2023-03-04T14:14:33.590Z,68.86
2023-03-04T14:17:03.852Z,69.36
2023-03-04T14:19:38.542Z,69.21
2023-03-04T14:22:21.937Z,69.11
2023-03-04T14:25:01.019Z,69.50
2023-03-04T14:27:29.735Z,68.81
2023-03-04T14:29:59.407Z,70.14
2023-03-04T14:32:29.236Z,70.59
2023-03-04T14:35:02.907Z,69.79
2023-03-04T14:37:38.956Z,70.25
2023-03-04T14:40:08.805Z,69.83
2023-03-04T14:42:41.684Z,70.38
2023-03-04T14:45:13.386Z,69.61
2023-03-04T14:47:45.527Z,70.61
2023-03-04T14:50:17.850Z,70.16
2023-03-04T14:52:48.434Z,70.92
2023-03-04T14:55:23.938Z,71.27
2023-03-04T14:57:58.332Z,71.54
2023-03-04T15:00:30.731Z,71.56
2023-03-04T15:03:00.587Z,71.80
2023-03-04T15:05:31.908Z,71.98
2023-03-04T15:08:01.819Z,72.13
2023-03-04T15:10:31.827Z,72.51
2023-03-04T15:13:02.030Z,72.30
2023-03-04T15:15:39.873Z,72.40
2023-03-04T15:18:22.841Z,73.18
2023-03-04T15:20:57.401Z,73.08
2023-03-04T15:23:26.093Z,73.45
2023-03-04T15:25:55.801Z,72.74
2023-03-04T15:28:24.602Z,73.46
2023-03-04T15:30:53.514Z,73.65
2023-03-04T15:33:21.477Z,73.88
2023-03-04T15:36:00.259Z,74.06
2023-03-04T15:38:29.211Z,73.91
2023-03-04T15:40:58.423Z,74.01
2023-03-04T15:43:26.508Z,74.01
2023-03-04T15:45:55.092Z,74.59
2023-03-04T15:48:23.251Z,74.52
2023-03-04T15:50:55.428Z,74.77
2023-03-04T15:53:32.661Z,74.29
2023-03-04T15:56:01.377Z,74.68
2023-03-04T15:58:31.287Z,75.19
2023-03-04T16:00:59.949Z,75.17
2023-03-04T16:03:27.802Z,74.31
2023-03-04T16:05:55.604Z,74.57
2023-03-04T16:08:26.004Z,75.03
2023-03-04T16:10:54.664Z,75.30
2023-03-04T16:13:23.943Z,75.40
2023-03-04T16:15:51.794Z,74.71
2023-03-04T16:18:19.729Z,75.09
2023-03-04T16:20:49.743Z,75.30
2023-03-04T16:23:21.620Z,75.38
2023-03-04T16:25:53.747Z,74.72
2023-03-04T16:28:21.944Z,74.84
2023-03-04T16:30:50.968Z,75.34
2023-03-04T16:33:18.868Z,75.14
2023-03-04T16:35:47.075Z,75.96
2023-03-04T16:38:25.918Z,75.40
2023-03-04T16:40:56.111Z,75.53
2023-03-04T16:43:24.030Z,75.14
2023-03-04T16:45:52.375Z,75.38
2023-03-04T16:48:21.133Z,75.55
2023-03-04T16:50:49.058Z,75.53
2023-03-04T16:53:27.843Z,76.06
2023-03-04T16:55:59.737Z,76.28
2023-03-04T16:58:27.752Z,76.39
2023-03-04T17:00:56.060Z,75.77
2023-03-04T17:03:24.176Z,75.93
2023-03-04T17:05:52.002Z,75.95
2023-03-04T17:08:19.926Z,77.19
2023-03-04T17:10:48.801Z,76.67
2023-03-04T17:13:18.020Z,76.61
2023-03-04T17:15:46.971Z,76.62
2023-03-04T17:18:15.071Z,76.55
2023-03-04T17:20:42.878Z,76.46
2023-03-04T17:23:10.725Z,76.67
2023-03-04T17:25:38.546Z,76.46
2023-03-04T17:28:07.820Z,76.91
2023-03-04T17:30:37.048Z,76.84
2023-03-04T17:33:05.008Z,76.56
2023-03-04T17:35:32.804Z,76.18
2023-03-04T17:38:00.597Z,76.77
2023-03-04T17:40:28.415Z,76.24
2023-03-04T17:42:56.305Z,76.79
2023-03-04T17:45:24.274Z,76.58
2023-03-04T17:47:53.479Z,77.17
2023-03-04T17:50:21.898Z,77.44
2023-03-04T17:52:50.447Z,76.92
2023-03-04T17:55:18.301Z,76.49
2023-03-04T17:57:46.182Z,77.46
2023-03-04T18:00:15.267Z,76.94
2023-03-04T18:02:43.141Z,77.18
2023-03-04T18:05:12.427Z,77.19
2023-03-04T18:07:40.251Z,76.76
2023-03-04T18:10:09.136Z,77.32
2023-03-04T18:12:36.990Z,77.48
2023-03-04T18:15:05.383Z,77.45
2023-03-04T18:17:33.257Z,76.65
2023-03-04T18:20:01.977Z,76.95
2023-03-04T18:22:31.697Z,76.76
2023-03-04T18:24:59.738Z,76.90
2023-03-04T18:27:27.887Z,77.47
2023-03-04T18:29:56.480Z,77.44
2023-03-04T18:32:24.702Z,76.95
2023-03-04T18:34:52.735Z,78.29
2023-03-04T18:37:20.638Z,77.43
2023-03-04T18:39:50.018Z,78.08
2023-03-04T18:42:18.289Z,76.83
2023-03-04T18:44:46.155Z,78.54
2023-03-04T18:47:14.262Z,78.07
2023-03-04T18:49:44.728Z,78.32
2023-03-04T18:52:12.606Z,78.54
2023-03-04T18:54:40.466Z,78.18
2023-03-04T18:57:11.656Z,77.76
2023-03-04T18:59:44.238Z,78.11
2023-03-04T19:02:18.154Z,77.77
2023-03-04T19:04:46.186Z,77.57
2023-03-04T19:07:14.075Z,77.51
2023-03-04T19:09:41.958Z,78.03
2023-03-04T19:12:12.002Z,77.24
2023-03-04T19:14:40.348Z,77.66
2023-03-04T19:17:08.192Z,77.86
2023-03-04T19:19:36.586Z,77.29
2023-03-04T19:22:04.669Z,77.22
2023-03-04T19:24:32.670Z,77.68
2023-03-04T19:27:00.525Z,77.83
2023-03-04T19:29:30.149Z,76.89
2023-03-04T19:31:58.142Z,76.17
2023-03-04T19:34:25.953Z,76.44
2023-03-04T19:36:53.882Z,76.83
2023-03-04T19:39:21.802Z,76.91
2023-03-04T19:41:49.614Z,76.18
2023-03-04T19:44:18.595Z,76.66
2023-03-04T19:46:47.833Z,77.05
2023-03-04T19:49:15.709Z,76.98
2023-03-04T19:51:43.538Z,76.88
2023-03-04T19:54:11.790Z,76.90
2023-03-04T19:56:39.697Z,76.86
2023-03-04T19:59:07.830Z,76.59
2023-03-04T20:01:37.602Z,76.96
2023-03-04T20:04:08.692Z,76.95
2023-03-04T20:06:37.424Z,77.03
2023-03-04T20:09:05.436Z,77.23
2023-03-04T20:11:34.776Z,77.83
2023-03-04T20:14:05.702Z,77.69
2023-03-04T20:16:35.412Z,77.92
2023-03-04T20:19:03.207Z,77.90
2023-03-04T20:21:34.024Z,77.53
2023-03-04T20:24:02.922Z,76.73
2023-03-04T20:26:32.014Z,77.27
2023-03-04T20:29:00.047Z,77.16
2023-03-04T20:31:29.860Z,76.91
2023-03-04T20:33:59.327Z,77.31
2023-03-04T20:36:28.910Z,77.30
2023-03-04T20:39:06.583Z,76.64
2023-03-04T20:41:38.878Z,77.04
2023-03-04T20:44:07.284Z,76.53
2023-03-04T20:46:39.051Z,76.82
2023-03-04T20:49:08.762Z,77.15
2023-03-04T20:51:37.348Z,76.68
2023-03-04T20:54:07.268Z,77.20
2023-03-04T20:56:35.408Z,77.57
2023-03-04T20:59:05.032Z,77.02
2023-03-04T21:01:33.477Z,77.63
2023-03-04T21:04:01.867Z,76.87
2023-03-04T21:06:30.126Z,77.14
2023-03-04T21:09:01.000Z,76.99
2023-03-04T21:11:30.441Z,76.33
2023-03-04T21:13:58.744Z,76.23
2023-03-04T21:16:29.710Z,77.19
2023-03-04T21:18:57.595Z,76.59
2023-03-04T21:21:27.334Z,77.24
2023-03-04T21:23:57.560Z,76.54
2023-03-04T21:26:25.870Z,76.89
2023-03-04T21:28:55.711Z,77.04
2023-03-04T21:31:25.588Z,76.81
2023-03-04T21:33:55.336Z,76.82
2023-03-04T21:36:23.871Z,76.72
2023-03-04T21:38:51.666Z,76.73
2023-03-04T21:41:22.718Z,77.70
2023-03-04T21:43:50.922Z,76.41
2023-03-04T21:46:20.212Z,77.21
2023-03-04T21:48:48.458Z,77.07
2023-03-04T21:51:17.584Z,76.38
2023-03-04T21:53:45.591Z,76.10
2023-03-04T21:56:13.980Z,76.41
2023-03-04T21:58:42.386Z,76.85
2023-03-04T22:01:11.442Z,76.74
2023-03-04T22:03:40.893Z,76.09
2023-03-04T22:06:11.409Z,76.82
2023-03-04T22:08:40.144Z,75.96
2023-03-04T22:11:10.576Z,76.44
2023-03-04T22:13:38.810Z,76.53
2023-03-04T22:16:07.933Z,77.22
2023-03-04T22:18:38.463Z,76.61
2023-03-04T22:21:10.648Z,76.16
2023-03-04T22:23:38.590Z,76.56
2023-03-04T22:26:08.331Z,77.32
2023-03-04T22:28:37.482Z,77.43
2023-03-04T22:31:15.259Z,77.14
2023-03-04T22:33:43.886Z,77.72
2023-03-04T22:36:14.117Z,77.10
2023-03-04T22:38:44.504Z,77.79
2023-03-04T22:41:17.886Z,78.10
2023-03-04T22:43:46.256Z,78.32
2023-03-04T22:46:15.707Z,78.25
2023-03-04T22:48:43.877Z,79.06
2023-03-04T22:51:13.536Z,77.60
2023-03-04T22:53:43.360Z,78.13
2023-03-04T22:56:12.960Z,78.28
2023-03-04T22:58:41.177Z,77.75
2023-03-04T23:01:10.706Z,77.90
2023-03-04T23:03:40.279Z,78.35
2023-03-04T23:06:10.315Z,78.31
2023-03-04T23:08:41.179Z,77.74
2023-03-04T23:11:10.592Z,78.45
2023-03-04T23:13:39.058Z,78.02
2023-03-04T23:16:09.430Z,77.40
2023-03-04T23:18:38.049Z,77.90
2023-03-04T23:21:06.641Z,77.32
2023-03-04T23:23:35.440Z,77.26
2023-03-04T23:26:05.331Z,77.01
2023-03-04T23:28:33.269Z,77.15
2023-03-04T23:31:01.083Z,77.47
2023-03-04T23:33:29.021Z,77.23
2023-03-04T23:35:57.695Z,77.76
2023-03-04T23:38:25.575Z,77.65
2023-03-04T23:40:53.447Z,77.08
2023-03-04T23:43:22.708Z,77.47
2023-03-04T23:45:50.556Z,78.25
2023-03-04T23:48:18.415Z,77.62
2023-03-04T23:50:51.884Z,78.04
2023-03-04T23:53:19.816Z,77.54
2023-03-04T23:55:48.106Z,77.25
2023-03-04T23:58:15.961Z,78.02
